Time;durP1;ratioP1;P1;durP2;ratioP2;P2;SDS_P1;SDS_P2;PMS_P1;PMS_P2;Temp;Humidity;BMP_temperature;BMP_pressure;BME280_temperature;BME280_humidity;BME280_pressure;Samples;Min_cycle;Max_cycle;Signal;HPM_P1;HPM_P2
2022/01/07 00:02:36;;;;;;;14.50;8.50;;;22.50;47.30;;;;;;215386;1296;24351;-59
2022/01/07 00:07:42;;;;;;;13.70;7.20;;;22.50;47.50;;;;;;215846;1293;22641;-59
2022/01/07 00:12:58;;;;;;;11.40;6.50;;;22.80;48.10;;;;;;215667;1293;23058;-58
2022/01/07 00:18:22;;;;;;;11.30;5.70;;;23.00;47.50;;;;;;215101;1293;24454;-59
2022/01/07 00:23:45;;;;;;;11.90;6.40;;;23.10;47.10;;;;;;215325;1293;25441;-59
2022/01/07 00:28:55;;;;;;;11.70;6.30;;;23.10;47.20;;;;;;215502;1292;23875;-57
2022/01/07 00:34:08;;;;;;;11.60;6.20;;;23.10;47.80;;;;;;215269;1296;24335;-58
2022/01/07 00:39:29;;;;;;;12.20;6.20;;;23.50;47.80;;;;;;215604;1293;22800;-61
2022/01/07 00:44:55;;;;;;;9.80;5.70;;;23.80;47.20;;;;;;215514;1293;25397;-60
2022/01/07 00:50:01;;;;;;;12.20;6.20;;;23.90;47.00;;;;;;215622;1292;22595;-62
2022/01/07 00:55:17;;;;;;;10.20;5.90;;;24.10;46.40;;;;;;215347;1293;25359;-60
2022/01/07 01:00:32;;;;;;;10.80;5.80;;;24.10;46.40;;;;;;215516;1292;22575;-60
2022/01/07 01:05:44;;;;;;;11.20;6.50;;;24.10;45.90;;;;;;215688;1293;23177;-62
2022/01/07 01:10:54;;;;;;;14.90;7.00;;;24.20;45.80;;;;;;215719;1292;22569;-60
2022/01/07 01:16:03;;;;;;;13.50;6.50;;;24.30;45.70;;;;;;215401;1296;22587;-61
2022/01/07 01:21:07;;;;;;;12.60;6.80;;;24.30;45.60;;;;;;215238;1296;22653;-60
2022/01/07 01:26:13;;;;;;;11.40;7.00;;;24.30;45.60;;;;;;215278;1294;22591;-60
2022/01/07 01:31:21;;;;;;;12.50;6.90;;;24.00;45.80;;;;;;215332;1294;22749;-61
2022/01/07 01:36:25;;;;;;;12.70;6.80;;;24.10;45.90;;;;;;215426;1293;22661;-60
2022/01/07 01:41:29;;;;;;;11.00;6.70;;;23.90;46.00;;;;;;215359;1296;24261;-60
2022/01/07 01:46:42;;;;;;;11.60;7.20;;;23.80;46.10;;;;;;215389;1295;25540;-61
2022/01/07 01:52:01;;;;;;;11.90;7.30;;;23.70;46.20;;;;;;215432;1293;24418;-61
2022/01/07 01:57:13;;;;;;;11.90;7.10;;;23.70;46.20;;;;;;215367;1293;24247;-60
2022/01/07 02:02:20;;;;;;;12.00;7.30;;;23.80;46.20;;;;;;215482;1293;24460;-60
2022/01/07 02:07:27;;;;;;;11.00;6.80;;;23.70;46.10;;;;;;215756;1293;25587;-61
2022/01/07 02:12:32;;;;;;;11.50;7.30;;;23.90;46.00;;;;;;215385;1293;22594;-61
2022/01/07 02:17:42;;;;;;;13.10;7.10;;;23.90;45.80;;;;;;215256;1295;22598;-59
2022/01/07 02:22:45;;;;;;;9.60;6.30;;;23.90;45.60;;;;;;215296;1296;23307;-60
2022/01/07 02:27:49;;;;;;;12.10;7.10;;;23.90;45.50;;;;;;215196;1296;22715;-62
2022/01/07 02:32:54;;;;;;;11.50;7.60;;;24.00;45.60;;;;;;215584;1293;22571;-61
2022/01/07 02:37:58;;;;;;;11.50;7.60;;;24.00;45.60;;;;;;215567;1292;22605;-61
2022/01/07 02:43:03;;;;;;;12.20;6.70;;;23.90;45.50;;;;;;215554;1293;24279;-60
2022/01/07 02:48:06;;;;;;;11.90;7.70;;;24.00;45.50;;;;;;215574;1293;25528;-61
2022/01/07 02:53:11;;;;;;;13.00;7.10;;;24.00;45.40;;;;;;215227;1294;22563;-61
2022/01/07 02:58:14;;;;;;;12.30;7.50;;;24.10;45.30;;;;;;215536;1293;24135;-61
2022/01/07 03:03:18;;;;;;;12.60;7.30;;;24.00;45.40;;;;;;215436;1293;26717;-60
2022/01/07 03:08:21;;;;;;;11.70;7.30;;;23.90;45.50;;;;;;215524;1293;22589;-58
2022/01/07 03:13:25;;;;;;;13.20;7.70;;;23.90;45.70;;;;;;215332;1296;24349;-60
2022/01/07 03:18:29;;;;;;;12.60;7.20;;;23.90;45.60;;;;;;215256;1296;24505;-61
2022/01/07 03:23:33;;;;;;;11.70;7.10;;;23.90;45.60;;;;;;215214;1296;26704;-62
2022/01/07 03:28:38;;;;;;;10.90;7.00;;;23.80;45.70;;;;;;215391;1296;24525;-61
2022/01/07 03:33:42;;;;;;;12.90;7.40;;;23.80;45.60;;;;;;215160;1293;22796;-61
2022/01/07 03:38:45;;;;;;;13.10;7.20;;;23.90;45.40;;;;;;215361;1293;25533;-61
2022/01/07 03:43:53;;;;;;;13.00;7.10;;;24.00;45.30;;;;;;215476;1293;24255;-58
2022/01/07 03:49:04;;;;;;;11.10;7.20;;;24.00;45.10;;;;;;215332;1293;25520;-60
2022/01/07 03:54:10;;;;;;;11.20;6.90;;;24.10;45.00;;;;;;215322;1293;22632;-59
2022/01/07 03:59:34;;;;;;;11.70;7.30;;;24.10;45.10;;;;;;215456;1293;23672;-61
2022/01/07 04:04:50;;;;;;;10.80;6.70;;;24.10;44.80;;;;;;215316;1296;22595;-59
2022/01/07 04:09:59;;;;;;;11.90;7.20;;;24.10;44.90;;;;;;215403;1293;22659;-59
2022/01/07 04:15:10;;;;;;;10.80;6.70;;;24.10;44.80;;;;;;215381;1293;25547;-61
2022/01/07 04:20:25;;;;;;;11.10;6.90;;;24.10;45.00;;;;;;215430;1293;24226;-60
2022/01/07 04:25:35;;;;;;;12.20;6.90;;;24.10;44.80;;;;;;215399;1293;25657;-61
2022/01/07 04:30:43;;;;;;;14.70;7.10;;;24.00;44.90;;;;;;215369;1293;22914;-60
2022/01/07 04:35:48;;;;;;;13.30;6.90;;;24.00;45.20;;;;;;215430;1293;24293;-60
2022/01/07 04:40:51;;;;;;;12.20;7.00;;;23.90;45.10;;;;;;215463;1293;22586;-59
2022/01/07 04:45:55;;;;;;;14.70;6.60;;;23.90;45.10;;;;;;215382;1293;24547;-60
2022/01/07 04:50:59;;;;;;;13.00;6.60;;;23.90;45.20;;;;;;215369;1293;24333;-59
2022/01/07 04:56:03;;;;;;;14.50;6.90;;;24.00;45.10;;;;;;215315;1293;22649;-61
2022/01/07 05:01:07;;;;;;;14.90;6.80;;;24.00;44.90;;;;;;215459;1293;26142;-60
2022/01/07 05:06:43;;;;;;;15.60;7.10;;;24.10;44.70;;;;;;215429;1293;25287;-61
2022/01/07 05:11:34;;;;;;;12.30;6.30;;;24.10;44.60;;;;;;215371;1293;24251;-60
2022/01/07 05:16:38;;;;;;;10.90;6.40;;;24.10;44.60;;;;;;215230;1296;22711;-60
2022/01/07 05:21:42;;;;;;;14.50;6.60;;;24.10;44.90;;;;;;215487;1293;22661;-60
2022/01/07 05:26:45;;;;;;;11.60;6.60;;;24.10;44.60;;;;;;215243;1296;22668;-60
2022/01/07 05:31:51;;;;;;;12.70;6.70;;;24.10;44.40;;;;;;215400;1293;25503;-61
2022/01/07 05:36:55;;;;;;;14.80;6.90;;;24.20;44.50;;;;;;215453;1296;24307;-60
2022/01/07 05:41:59;;;;;;;13.50;6.40;;;24.20;44.30;;;;;;215469;1293;22768;-61
2022/01/07 05:47:03;;;;;;;12.80;5.90;;;24.10;44.60;;;;;;215455;1293;25073;-59
2022/01/07 05:52:07;;;;;;;12.20;6.30;;;24.10;44.90;;;;;;215426;1293;22575;-61
2022/01/07 05:57:10;;;;;;;10.30;6.00;;;24.00;44.70;;;;;;215047;1296;174792;-60
2022/01/07 06:02:14;;;;;;;14.30;6.40;;;24.00;45.30;;;;;;215160;1293;22628;-61
2022/01/07 06:07:23;;;;;;;12.30;6.00;;;23.90;44.80;;;;;;215342;1296;22595;-61
2022/01/07 06:12:26;;;;;;;10.60;5.90;;;23.90;44.80;;;;;;215235;1293;22602;-61
2022/01/07 06:17:30;;;;;;;10.50;6.30;;;23.90;44.90;;;;;;214937;1295;25522;-60
2022/01/07 06:22:34;;;;;;;10.20;5.70;;;23.90;44.90;;;;;;215338;1293;24765;-61
2022/01/07 06:27:38;;;;;;;10.10;5.90;;;23.90;44.60;;;;;;215424;1296;23273;-62
2022/01/07 06:32:42;;;;;;;8.90;5.50;;;24.00;44.40;;;;;;215354;1296;22582;-58
2022/01/07 06:37:48;;;;;;;9.10;5.30;;;24.10;44.40;;;;;;215460;1293;23105;-59
2022/01/07 06:42:51;;;;;;;7.90;5.10;;;24.10;44.40;;;;;;215493;1293;22612;-61
2022/01/07 06:47:55;;;;;;;7.90;5.10;;;24.10;44.40;;;;;;215375;1293;22584;-59
2022/01/07 06:52:58;;;;;;;10.50;5.30;;;24.10;44.40;;;;;;215262;1293;22586;-61
2022/01/07 06:58:22;;;;;;;9.10;5.60;;;24.10;44.40;;;;;;215235;1293;22582;-61
2022/01/07 07:03:26;;;;;;;12.30;5.30;;;24.20;44.40;;;;;;215384;1293;22613;-58
2022/01/07 07:08:30;;;;;;;10.50;5.30;;;24.20;44.70;;;;;;215273;1293;24290;-57
2022/01/07 07:13:33;;;;;;;16.70;5.30;;;24.10;45.00;;;;;;215167;1296;24345;-58
2022/01/07 07:18:37;;;;;;;11.70;4.90;;;23.90;45.70;;;;;;215289;1293;25433;-59
2022/01/07 07:23:40;;;;;;;21.30;5.90;;;24.00;46.20;;;;;;215179;1293;24822;-58
2022/01/07 07:28:47;;;;;;;20.80;5.70;;;24.00;46.10;;;;;;215280;1293;24351;-59
2022/01/07 07:34:06;;;;;;;10.60;4.90;;;24.00;46.10;;;;;;215284;1293;22573;-59
2022/01/07 07:39:20;;;;;;;9.90;4.60;;;24.00;46.60;;;;;;215524;1293;25509;-55
2022/01/07 07:44:28;;;;;;;10.70;5.90;;;23.90;46.70;;;;;;215376;1293;26890;-57
2022/01/07 07:49:34;;;;;;;12.70;4.50;;;23.80;47.00;;;;;;215319;1296;25792;-57
2022/01/07 07:54:39;;;;;;;15.10;5.70;;;23.80;46.60;;;;;;215240;1296;25034;-58
2022/01/07 07:59:43;;;;;;;12.70;4.60;;;23.80;46.40;;;;;;215326;1296;22595;-54
2022/01/07 08:04:46;;;;;;;12.20;4.70;;;23.80;46.60;;;;;;215134;1295;26312;-57
2022/01/07 08:09:53;;;;;;;11.00;5.00;;;23.90;46.60;;;;;;215377;1293;25694;-57
2022/01/07 08:20:23;;;;;;;13.00;4.70;;;24.00;45.90;;;;;;215227;1296;22628;-58
2022/01/07 08:25:27;;;;;;;9.10;4.90;;;23.90;45.90;;;;;;215564;1293;22639;-57
2022/01/07 08:30:58;;;;;;;8.30;3.80;;;23.90;46.00;;;;;;215259;1296;22602;-55
2022/01/07 08:36:02;;;;;;;;;;;23.90;45.90;;;;;;215464;1294;24464;-57
2022/01/07 08:41:06;;;;;;;9.50;4.50;;;23.80;45.90;;;;;;215386;1293;22775;-56
2022/01/07 08:46:10;;;;;;;8.40;4.40;;;23.80;45.90;;;;;;215465;1293;22598;-56
2022/01/07 08:51:14;;;;;;;7.60;4.60;;;23.80;45.90;;;;;;215294;1293;22671;-56
2022/01/07 08:56:23;;;;;;;8.20;4.30;;;23.80;45.90;;;;;;215358;1293;24256;-55
2022/01/07 09:01:28;;;;;;;8.50;4.30;;;23.70;45.90;;;;;;215433;1293;22673;-57
2022/01/07 09:06:34;;;;;;;8.00;4.10;;;23.70;45.90;;;;;;215485;1293;22589;-59
2022/01/07 09:11:37;;;;;;;9.10;4.00;;;23.80;45.80;;;;;;215300;1293;25402;-58
2022/01/07 09:16:48;;;;;;;;;;;23.80;46.00;;;;;;215231;1294;22577;-57
2022/01/07 09:21:52;;;;;;;7.60;4.40;;;23.80;45.70;;;;;;215428;1293;24282;-54
2022/01/07 09:26:59;;;;;;;7.70;4.40;;;23.80;45.80;;;;;;215529;1293;22595;-54
2022/01/07 09:32:06;;;;;;;8.90;4.40;;;23.80;45.50;;;;;;215553;1293;24621;-57
2022/01/07 09:37:10;;;;;;;9.10;4.10;;;23.80;46.00;;;;;;215437;1292;22585;-59
2022/01/07 09:42:16;;;;;;;6.90;4.10;;;23.90;45.10;;;;;;215398;1293;22790;-57
2022/01/07 09:47:19;;;;;;;6.60;3.80;;;23.90;45.00;;;;;;215330;1293;24351;-57
2022/01/07 09:52:26;;;;;;;6.20;3.80;;;23.90;45.00;;;;;;215581;1293;22596;-59
2022/01/07 09:57:33;;;;;;;8.30;4.40;;;23.90;44.90;;;;;;215332;1297;25592;-57
2022/01/07 10:02:36;;;;;;;11.10;4.00;;;24.10;44.60;;;;;;215155;1296;22567;-59
2022/01/07 10:07:42;;;;;;;6.80;3.80;;;24.10;44.60;;;;;;215377;1296;22735;-56
2022/01/07 10:13:06;;;;;;;6.70;4.10;;;24.10;44.50;;;;;;215170;1296;25503;-57
2022/01/07 10:18:15;;;;;;;7.80;4.20;;;24.10;44.80;;;;;;215245;1296;25559;-59
2022/01/07 10:23:26;;;;;;;7.00;4.40;;;24.10;44.50;;;;;;215563;1294;24230;-58
2022/01/07 10:28:34;;;;;;;10.10;4.20;;;24.10;44.40;;;;;;215412;1297;24367;-56
2022/01/07 10:33:41;;;;;;;9.00;4.20;;;24.20;44.60;;;;;;215416;1294;22588;-57
2022/01/07 10:38:49;;;;;;;8.10;3.90;;;24.30;44.40;;;;;;215159;1294;24260;-58
2022/01/07 10:43:53;;;;;;;7.70;3.70;;;24.20;44.50;;;;;;215406;1297;22582;-58
2022/01/07 10:49:04;;;;;;;6.90;3.50;;;24.30;44.60;;;;;;215178;1297;22648;-57
2022/01/07 10:54:16;;;;;;;9.40;3.90;;;24.30;44.70;;;;;;215206;1294;22597;-57
2022/01/07 10:59:21;;;;;;;7.00;3.50;;;24.20;44.80;;;;;;215312;1297;22636;-57
2022/01/07 11:04:29;;;;;;;7.40;3.90;;;24.10;45.00;;;;;;215468;1297;22606;-59
2022/01/07 11:09:50;;;;;;;7.50;4.00;;;24.10;45.10;;;;;;215226;1297;23182;-57
2022/01/07 11:14:58;;;;;;;;;;;24.00;45.30;;;;;;215497;1293;25286;-56
2022/01/07 11:20:04;;;;;;;7.90;4.00;;;23.90;45.10;;;;;;215225;1299;22583;-56
2022/01/07 11:25:10;;;;;;;5.60;3.30;;;23.80;45.60;;;;;;215268;1297;22588;-59
2022/01/07 11:30:18;;;;;;;5.40;3.40;;;23.70;45.90;;;;;;215058;1295;24319;-57
2022/01/07 11:35:24;;;;;;;7.20;3.50;;;23.50;46.00;;;;;;215136;1297;25531;-57
2022/01/07 11:40:33;;;;;;;6.20;3.20;;;23.40;46.30;;;;;;215126;1293;25971;-57
2022/01/07 11:45:41;;;;;;;7.10;3.50;;;23.30;46.40;;;;;;215181;1296;22704;-58
2022/01/07 11:51:08;;;;;;;7.40;3.40;;;23.30;46.50;;;;;;214985;1297;23026;-57
2022/01/07 11:56:24;;;;;;;5.50;3.60;;;23.20;46.90;;;;;;215069;1298;22599;-56
2022/01/07 12:01:37;;;;;;;7.70;3.50;;;23.20;46.20;;;;;;215273;1296;25420;-57
2022/01/07 12:06:44;;;;;;;7.30;3.80;;;23.10;46.20;;;;;;214855;1296;23089;-57
2022/01/07 12:11:54;;;;;;;6.10;3.50;;;22.90;46.50;;;;;;215370;1297;22675;-53
2022/01/07 12:17:02;;;;;;;6.80;3.60;;;22.90;46.60;;;;;;215288;1296;25542;-56
2022/01/07 12:22:11;;;;;;;5.40;3.50;;;22.80;46.70;;;;;;215237;1296;24254;-58
2022/01/07 12:27:20;;;;;;;6.00;3.60;;;22.70;47.00;;;;;;214927;1295;22651;-58
2022/01/07 12:32:38;;;;;;;6.60;3.70;;;22.70;47.50;;;;;;215112;1296;22604;-59
2022/01/07 12:37:44;;;;;;;6.10;3.30;;;22.60;47.40;;;;;;215009;1293;23254;-57
2022/01/07 12:42:49;;;;;;;6.80;3.80;;;22.60;47.30;;;;;;215193;1296;22623;-58
2022/01/07 12:47:57;;;;;;;8.20;3.80;;;22.50;47.30;;;;;;215208;1296;25015;-57
2022/01/07 12:53:04;;;;;;;6.20;3.80;;;22.50;47.40;;;;;;215065;1296;24263;-56
2022/01/07 12:58:08;;;;;;;7.40;4.00;;;22.90;46.90;;;;;;215102;1293;22589;-57
2022/01/07 13:03:12;;;;;;;9.00;3.70;;;23.20;46.20;;;;;;215150;1294;24259;-57
2022/01/07 13:08:20;;;;;;;6.40;3.60;;;23.40;45.80;;;;;;215119;1294;26845;-56
2022/01/07 13:13:26;;;;;;;;;;;23.50;45.40;;;;;;215520;1297;22585;-57
2022/01/07 13:18:31;;;;;;;8.40;4.40;;;23.60;45.40;;;;;;215127;1294;24272;-56
2022/01/07 13:23:56;;;;;;;6.40;3.70;;;23.60;45.10;;;;;;215196;1293;22571;-56
2022/01/07 13:29:27;;;;;;;6.40;3.80;;;23.70;45.10;;;;;;215435;1293;22789;-58
2022/01/07 13:34:35;;;;;;;7.90;3.90;;;23.60;45.10;;;;;;215066;1294;22574;-56
2022/01/07 13:39:54;;;;;;;8.20;3.60;;;23.60;45.20;;;;;;215117;1296;28949;-56
2022/01/07 13:45:10;;;;;;;7.20;3.60;;;23.70;45.40;;;;;;215166;1294;25355;-58
2022/01/07 13:50:41;;;;;;;6.40;3.70;;;23.70;45.00;;;;;;215146;1296;25373;-57
2022/01/07 13:56:10;;;;;;;6.50;3.70;;;23.70;45.40;;;;;;215064;1296;26283;-58
2022/01/07 14:01:24;;;;;;;7.00;3.70;;;23.70;44.90;;;;;;215040;1296;25227;-58
2022/01/07 14:06:41;;;;;;;6.70;4.10;;;23.80;45.10;;;;;;215171;1293;22594;-58
2022/01/07 14:12:03;;;;;;;6.80;3.90;;;23.80;44.70;;;;;;215370;1292;22770;-59
2022/01/07 14:17:12;;;;;;;7.20;3.90;;;23.80;44.50;;;;;;215235;1294;25258;-58
2022/01/07 14:22:20;;;;;;;6.10;3.50;;;23.90;44.40;;;;;;215289;1294;22899;-58
2022/01/07 14:27:40;;;;;;;6.90;4.00;;;23.90;44.40;;;;;;215408;1293;22606;-56
2022/01/07 14:32:44;;;;;;;5.30;3.40;;;23.90;44.10;;;;;;215482;1293;26513;-55
2022/01/07 14:38:05;;;;;;;7.40;3.90;;;24.00;44.20;;;;;;215422;1293;22574;-59
2022/01/07 14:43:26;;;;;;;7.50;4.40;;;23.90;43.60;;;;;;215457;1293;24551;-56
2022/01/07 14:48:31;;;;;;;6.60;3.80;;;24.00;43.60;;;;;;215208;1294;22678;-60
2022/01/07 14:53:37;;;;;;;7.20;4.10;;;24.00;43.70;;;;;;215093;1296;22608;-56
2022/01/07 14:58:44;;;;;;;6.80;4.00;;;23.90;43.80;;;;;;215062;1296;25263;-57
2022/01/07 15:03:47;;;;;;;7.80;4.30;;;23.80;43.60;;;;;;214902;1296;22608;-57
2022/01/07 15:08:51;;;;;;;8.20;4.00;;;23.70;43.50;;;;;;216834;1296;26580;-58
2022/01/07 15:13:54;;;;;;;6.20;3.70;;;23.70;43.60;;;;;;215108;1293;24002;-58
2022/01/07 15:19:01;;;;;;;7.20;4.10;;;23.70;44.00;;;;;;215400;1296;25633;-57
2022/01/07 15:24:10;;;;;;;6.50;3.80;;;23.60;43.80;;;;;;215361;1293;22634;-54
2022/01/07 15:29:15;;;;;;;6.30;4.00;;;23.70;43.80;;;;;;215436;1293;22575;-56
2022/01/07 15:34:18;;;;;;;6.80;3.50;;;23.60;43.80;;;;;;215340;1293;24329;-57
2022/01/07 15:39:26;;;;;;;5.60;3.60;;;23.70;43.80;;;;;;215123;1296;22618;-58
2022/01/07 15:44:33;;;;;;;;;;;23.70;43.60;;;;;;215226;1293;22909;-59
2022/01/07 15:49:38;;;;;;;6.50;3.70;;;23.70;43.70;;;;;;215338;1292;25693;-59
2022/01/07 15:54:42;;;;;;;8.50;3.40;;;23.80;43.60;;;;;;215261;1293;25528;-58
2022/01/07 15:59:46;;;;;;;6.40;3.90;;;23.70;43.60;;;;;;215051;1295;23914;-59
2022/01/07 16:04:51;;;;;;;6.20;3.70;;;23.70;43.80;;;;;;215031;1295;24233;-58
2022/01/07 16:10:01;;;;;;;6.90;4.10;;;23.80;44.10;;;;;;214823;1293;22957;-55
2022/01/07 16:15:11;;;;;;;7.60;3.60;;;23.80;43.90;;;;;;215014;1293;22573;-58
2022/01/07 16:20:19;;;;;;;;;;;23.80;44.00;;;;;;215005;1293;26517;-57
2022/01/07 16:25:37;;;;;;;7.10;3.80;;;23.80;44.30;;;;;;215232;1293;25582;-59
2022/01/07 16:30:49;;;;;;;6.90;3.70;;;23.80;43.80;;;;;;215003;1294;25351;-56
2022/01/07 16:35:58;;;;;;;7.00;4.30;;;23.90;43.80;;;;;;215134;1293;25547;-56
2022/01/07 16:41:14;;;;;;;7.00;3.50;;;23.90;43.70;;;;;;214927;1293;24094;-59
2022/01/07 16:46:28;;;;;;;7.20;3.90;;;23.90;43.60;;;;;;214845;1293;25594;-57
2022/01/07 16:51:38;;;;;;;5.90;3.40;;;23.90;43.60;;;;;;214678;1293;23017;-58
2022/01/07 16:56:42;;;;;;;5.70;3.70;;;23.90;43.60;;;;;;215181;1293;22605;-57
2022/01/07 17:01:45;;;;;;;6.70;3.80;;;23.90;43.60;;;;;;215345;1293;22573;-57
2022/01/07 17:06:49;;;;;;;6.90;3.40;;;23.90;43.70;;;;;;215027;1293;25538;-58
2022/01/07 17:11:53;;;;;;;6.40;3.60;;;24.00;43.50;;;;;;215300;1293;26532;-56
2022/01/07 17:17:02;;;;;;;6.70;3.70;;;24.00;43.90;;;;;;215390;1293;22742;-58
2022/01/07 17:22:08;;;;;;;6.70;3.30;;;24.10;43.50;;;;;;215221;1293;24329;-59
2022/01/07 17:27:14;;;;;;;6.40;3.80;;;24.10;43.60;;;;;;215357;1293;25511;-58
2022/01/07 17:32:21;;;;;;;6.70;3.60;;;24.20;44.90;;;;;;215146;1293;22653;-60
2022/01/07 17:37:44;;;;;;;8.10;3.90;;;24.10;45.90;;;;;;215117;1293;24965;-60
2022/01/07 17:43:04;;;;;;;7.10;4.50;;;24.10;46.70;;;;;;215097;1296;24438;-58
2022/01/07 17:48:09;;;;;;;5.40;3.70;;;24.20;46.40;;;;;;215124;1293;22735;-58
2022/01/07 17:53:18;;;;;;;6.50;3.60;;;24.30;46.50;;;;;;215093;1292;175459;-59
2022/01/07 17:58:25;;;;;;;8.60;3.80;;;24.40;46.60;;;;;;215350;1293;25442;-57
2022/01/07 18:03:54;;;;;;;7.00;3.90;;;24.30;47.10;;;;;;215117;1293;25667;-58
2022/01/07 18:09:11;;;;;;;6.20;3.60;;;24.00;47.00;;;;;;215516;1293;25447;-58
2022/01/07 18:14:16;;;;;;;5.30;3.50;;;23.90;47.90;;;;;;215258;1293;22594;-58
2022/01/07 18:19:21;;;;;;;6.20;3.80;;;23.70;47.70;;;;;;215194;1296;22603;-58
2022/01/07 18:24:46;;;;;;;5.70;3.80;;;23.50;47.80;;;;;;215218;1296;25672;-57
2022/01/07 18:29:59;;;;;;;5.90;3.60;;;23.30;46.80;;;;;;215117;1293;25671;-58
2022/01/07 18:35:07;;;;;;;10.40;4.00;;;23.30;48.00;;;;;;215197;1293;25548;-57
2022/01/07 18:40:19;;;;;;;6.00;2.90;;;23.20;48.60;;;;;;214697;1293;22807;-58
2022/01/07 18:45:27;;;;;;;6.00;3.30;;;23.20;48.60;;;;;;214936;1293;25474;-59
2022/01/07 18:50:31;;;;;;;8.10;3.10;;;23.10;49.10;;;;;;214811;1296;25513;-59
2022/01/07 18:55:44;;;;;;;8.70;3.60;;;23.00;50.00;;;;;;215232;1292;24720;-58
2022/01/07 19:01:07;;;;;;;5.20;3.40;;;22.90;49.60;;;;;;214908;1293;22673;-59
2022/01/07 19:06:14;;;;;;;7.50;3.70;;;22.80;49.60;;;;;;215300;1293;25620;-58
2022/01/07 19:11:22;;;;;;;5.50;3.40;;;22.80;49.70;;;;;;215200;1293;26922;-59
2022/01/07 19:16:32;;;;;;;6.10;3.40;;;22.70;49.80;;;;;;214954;1296;22601;-56
2022/01/07 19:21:38;;;;;;;8.40;3.60;;;22.70;50.10;;;;;;215044;1293;22599;-56
2022/01/07 19:26:45;;;;;;;7.70;3.50;;;22.60;50.10;;;;;;214875;1293;22828;-57
2022/01/07 19:31:51;;;;;;;9.20;3.50;;;22.60;50.30;;;;;;214839;1293;25553;-55
2022/01/07 19:37:02;;;;;;;9.30;4.20;;;22.50;50.30;;;;;;215229;1293;22604;-56
2022/01/07 19:42:36;;;;;;;7.00;3.50;;;22.50;51.80;;;;;;215321;1293;24377;-57
2022/01/07 19:47:47;;;;;;;14.50;3.60;;;22.40;53.80;;;;;;215402;1295;22601;-56
2022/01/07 19:52:54;;;;;;;14.00;3.70;;;22.30;54.80;;;;;;215056;1296;26510;-58
2022/01/07 19:57:59;;;;;;;13.60;3.40;;;22.40;54.80;;;;;;214989;1296;24305;-58
2022/01/07 20:03:10;;;;;;;12.70;3.80;;;22.30;55.60;;;;;;214909;1293;22705;-58
2022/01/07 20:08:21;;;;;;;10.00;4.00;;;22.20;57.30;;;;;;214975;1293;24302;-57
2022/01/07 20:13:33;;;;;;;12.60;3.80;;;22.20;56.70;;;;;;214940;1293;22576;-56
2022/01/07 20:18:38;;;;;;;9.00;3.30;;;22.20;56.50;;;;;;214803;1293;22612;-57
2022/01/07 20:23:47;;;;;;;10.00;3.70;;;22.20;56.20;;;;;;215044;1296;22587;-58
2022/01/07 20:29:01;;;;;;;9.80;4.00;;;22.10;56.00;;;;;;215203;1296;25514;-58
2022/01/07 20:34:23;;;;;;;18.20;4.20;;;22.10;55.50;;;;;;215440;1293;25627;-58
2022/01/07 20:39:36;;;;;;;16.30;4.20;;;22.00;54.70;;;;;;214922;1296;22613;-55
2022/01/07 20:44:41;;;;;;;11.60;4.40;;;21.90;54.20;;;;;;214933;1293;25508;-53
2022/01/07 20:49:53;;;;;;;9.20;4.00;;;21.90;53.50;;;;;;214865;1293;25297;-55
2022/01/07 20:55:18;;;;;;;12.40;3.70;;;22.10;53.50;;;;;;215068;1293;24015;-58
2022/01/07 21:00:31;;;;;;;12.70;3.50;;;22.60;52.90;;;;;;215045;1293;24409;-58
2022/01/07 21:05:39;;;;;;;11.60;4.00;;;22.80;52.30;;;;;;214959;1293;22644;-56
2022/01/07 21:10:44;;;;;;;10.90;3.70;;;22.90;51.60;;;;;;215203;1293;22600;-58
2022/01/07 21:15:55;;;;;;;;;;;22.90;51.10;;;;;;214905;1293;24464;-55
2022/01/07 21:21:07;;;;;;;5.80;3.30;;;23.10;50.90;;;;;;215067;1293;25653;-58
2022/01/07 21:26:19;;;;;;;8.30;3.70;;;23.20;50.40;;;;;;215180;1295;22592;-59
2022/01/07 21:31:25;;;;;;;12.10;3.80;;;23.30;53.60;;;;;;215285;1293;23880;-59
2022/01/07 21:36:34;;;;;;;11.90;4.00;;;23.50;52.90;;;;;;215172;1293;22595;-59
2022/01/07 21:41:39;;;;;;;12.70;4.00;;;23.60;53.10;;;;;;215293;1293;22586;-60
2022/01/07 21:46:45;;;;;;;9.00;4.20;;;23.60;53.40;;;;;;215130;1293;26727;-60
2022/01/07 21:51:57;;;;;;;11.10;4.40;;;23.70;52.90;;;;;;215394;1293;24307;-59
2022/01/07 21:57:01;;;;;;;9.10;4.00;;;23.70;53.00;;;;;;215171;1296;22595;-59
2022/01/07 22:02:06;;;;;;;11.30;3.60;;;23.80;52.20;;;;;;215226;1293;25371;-55
2022/01/07 22:07:21;;;;;;;8.40;3.90;;;23.80;52.20;;;;;;215075;1293;24335;-59
2022/01/07 22:12:43;;;;;;;9.70;3.60;;;23.80;51.60;;;;;;215018;1296;25439;-58
2022/01/07 22:18:10;;;;;;;9.50;4.00;;;23.90;51.70;;;;;;215110;1293;25562;-60
2022/01/07 22:23:19;;;;;;;9.50;3.60;;;24.00;50.90;;;;;;215255;1293;25345;-57
2022/01/07 22:28:38;;;;;;;7.20;3.80;;;24.00;50.90;;;;;;215166;1293;24311;-59
2022/01/07 22:33:47;;;;;;;7.30;3.20;;;24.10;50.40;;;;;;215351;1296;25489;-57
2022/01/07 22:38:59;;;;;;;7.50;3.30;;;24.10;50.20;;;;;;215610;1294;22575;-60
2022/01/07 22:44:19;;;;;;;6.40;3.70;;;24.10;50.00;;;;;;215217;1293;25411;-59
2022/01/07 22:49:30;;;;;;;6.10;3.10;;;24.00;50.30;;;;;;215242;1293;22580;-62
2022/01/07 22:54:52;;;;;;;5.80;3.20;;;24.00;49.90;;;;;;215278;1293;24002;-59
2022/01/07 23:00:26;;;;;;;7.30;3.30;;;24.00;50.10;;;;;;214968;1293;22594;-60
2022/01/07 23:05:43;;;;;;;6.40;3.30;;;23.90;49.80;;;;;;215126;1293;24318;-58
2022/01/07 23:11:01;;;;;;;5.40;3.20;;;23.90;49.70;;;;;;215147;1293;25594;-58
2022/01/07 23:16:09;;;;;;;6.10;2.90;;;23.90;49.60;;;;;;215249;1293;22653;-59
2022/01/07 23:21:22;;;;;;;6.20;3.00;;;23.90;49.60;;;;;;215113;1296;22679;-58
2022/01/07 23:26:34;;;;;;;6.10;3.30;;;23.80;49.40;;;;;;215044;1293;27150;-57
2022/01/07 23:31:41;;;;;;;4.90;3.10;;;23.90;49.40;;;;;;215306;1293;25301;-60
2022/01/07 23:36:53;;;;;;;6.40;3.10;;;23.90;49.10;;;;;;215230;1293;22586;-59
2022/01/07 23:42:00;;;;;;;5.70;3.00;;;24.00;49.00;;;;;;215203;1296;24253;-58
2022/01/07 23:47:06;;;;;;;8.20;3.70;;;24.00;49.00;;;;;;214928;1296;25505;-59
2022/01/07 23:52:16;;;;;;;7.40;2.80;;;24.00;49.30;;;;;;215099;1293;22671;-59
2022/01/07 23:57:24;;;;;;;8.50;3.40;;;23.90;49.30;;;;;;215292;1293;22640;-57
